Upington, South Africa
Current Conditions -  °F | °C
As of 3:00 AM on Monday 22 Dec 2014 (Local Time) from FAUP Reporting Station
Clear Clear  
Wind Chill: 66°   Ceiling: Unl
Heat Index: 66°   Visibility: 6mi
Dew Point: 32°   Wind: 5mph
Humidity: 28%   Direction: 200°SSW
Pressure: 29.94"   Gusts: NA
Location:  28.46°S, 21.23°E
Report Text: FAUP 220100Z 20004KT CAVOK 19/M00 Q1014 NOSIG
Loading
Personal Weather Stations






























Interactive Weather Map New forecast layout! Learn more

10-Day Weather Forecast

Advertisements
Track Severe Weather on mobile